Time;durP1;ratioP1;P1;durP2;ratioP2;P2;SDS_P1;SDS_P2;PMS_P1;PMS_P2;Temp;Humidity;BMP_temperature;BMP_pressure;BME280_temperature;BME280_humidity;BME280_pressure;Samples;Min_cycle;Max_cycle;Signal;HPM_P1;HPM_P2
2021/09/24 00:00:28;;;;;;;8.48;4.60;;;;;;;10.92;92.70;99028.66;4990897;28;20100;-73
2021/09/24 00:02:54;;;;;;;10.85;4.80;;;;;;;10.89;92.93;99035.31;4992341;28;20395;-73
2021/09/24 00:05:21;;;;;;;7.38;4.30;;;;;;;11.13;91.40;99031.31;4993080;28;20030;-74
2021/09/24 00:07:46;;;;;;;8.73;5.00;;;;;;;10.87;90.55;98991.41;4992203;28;20042;-73
2021/09/24 00:10:13;;;;;;;7.97;5.00;;;;;;;10.98;90.31;99008.94;4991080;28;20405;-73
2021/09/24 00:12:39;;;;;;;12.80;5.47;;;;;;;10.77;90.79;99022.53;4988463;28;20026;-74
2021/09/24 00:15:07;;;;;;;11.43;5.00;;;;;;;10.67;92.18;99023.75;4983346;28;20026;-73
2021/09/24 00:17:33;;;;;;;12.73;5.20;;;;;;;10.43;92.85;98994.47;4988888;28;20034;-74
2021/09/24 00:19:58;;;;;;;13.88;5.00;;;;;;;10.34;94.21;99028.91;4993621;28;20081;-73
2021/09/24 00:22:23;;;;;;;7.60;4.47;;;;;;;10.39;94.68;99031.03;4991968;28;20049;-73
2021/09/24 00:24:48;;;;;;;7.78;4.85;;;;;;;10.36;95.58;99028.75;4991793;28;20019;-73
2021/09/24 00:27:14;;;;;;;8.50;4.38;;;;;;;10.59;95.54;99023.91;4985519;28;20080;-73
2021/09/24 00:29:39;;;;;;;7.28;4.63;;;;;;;10.68;95.51;99009.16;5007804;28;20097;-73
2021/09/24 00:32:05;;;;;;;7.13;4.40;;;;;;;10.79;95.04;99013.19;4990066;28;20030;-73
2021/09/24 00:34:30;;;;;;;7.97;4.70;;;;;;;10.87;94.72;99026.59;4992689;28;20033;-73
2021/09/24 00:36:56;;;;;;;11.32;4.78;;;;;;;10.68;94.32;99005.63;4993067;28;20495;-73
2021/09/24 00:39:21;;;;;;;10.18;4.70;;;;;;;10.84;93.89;99013.44;4992551;28;20030;-73
2021/09/24 00:41:46;;;;;;;9.63;4.57;;;;;;;10.77;93.53;99009.00;4975633;28;20026;-73
2021/09/24 00:44:12;;;;;;;11.45;5.15;;;;;;;10.63;94.30;99025.16;4993511;28;20480;-75
2021/09/24 00:46:37;;;;;;;6.82;4.40;;;;;;;10.69;94.47;99023.56;5015174;28;20484;-73
2021/09/24 00:49:02;;;;;;;6.93;4.50;;;;;;;10.55;94.44;99000.97;4975112;28;20538;-73
2021/09/24 00:51:28;;;;;;;7.13;4.45;;;;;;;10.59;94.21;99026.63;4983168;28;20023;-73
2021/09/24 00:53:53;;;;;;;10.43;4.95;;;;;;;10.30;94.59;99001.44;4987892;28;20081;-73
2021/09/24 00:56:21;;;;;;;7.90;4.00;;;;;;;10.37;95.17;99025.00;4981390;28;20472;-73
2021/09/24 00:58:46;;;;;;;8.82;4.78;;;;;;;10.04;95.96;99009.31;4991388;28;20030;-73
2021/09/24 01:01:12;;;;;;;7.25;4.45;;;;;;;9.93;97.25;99004.41;4996370;28;20548;-74
2021/09/24 01:03:38;;;;;;;8.27;4.60;;;;;;;9.86;98.63;99016.00;4994575;28;20040;-73
2021/09/24 01:06:04;;;;;;;6.75;4.60;;;;;;;10.18;98.56;99002.97;4996041;28;20026;-73
2021/09/24 01:08:31;;;;;;;8.50;4.50;;;;;;;10.24;97.42;99015.72;4977090;28;20027;-73
2021/09/24 01:10:56;;;;;;;7.30;4.70;;;;;;;10.10;97.86;99013.94;4978194;28;20532;-73
2021/09/24 01:13:22;;;;;;;9.02;4.28;;;;;;;10.13;98.19;99010.84;4994080;28;20118;-74
2021/09/24 01:15:47;;;;;;;7.35;4.55;;;;;;;10.10;97.85;98995.00;4993991;28;20524;-73
2021/09/24 01:18:12;;;;;;;8.30;4.07;;;;;;;10.08;96.75;99013.28;4996156;28;20080;-73
2021/09/24 01:20:38;;;;;;;7.40;4.40;;;;;;;9.97;96.64;99021.94;4997211;28;20061;-73
2021/09/24 01:23:03;;;;;;;8.40;4.78;;;;;;;9.75;97.75;98984.13;4995554;28;20460;-73
2021/09/24 01:25:29;;;;;;;7.82;4.63;;;;;;;9.91;97.49;99020.00;4989698;28;20101;-73
2021/09/24 01:27:54;;;;;;;7.40;4.50;;;;;;;9.66;95.71;98990.66;4976370;28;20054;-73
2021/09/24 01:30:20;;;;;;;5.35;3.90;;;;;;;9.55;93.55;99002.81;4991165;28;20077;-73
2021/09/24 01:32:47;;;;;;;7.70;4.65;;;;;;;9.44;94.34;99012.25;4994151;28;20081;-74
2021/09/24 01:35:13;;;;;;;6.68;4.05;;;;;;;9.35;95.55;99008.03;4995085;28;20022;-73
2021/09/24 01:37:39;;;;;;;7.03;4.18;;;;;;;9.38;96.31;99001.41;4994703;28;20029;-73
2021/09/24 01:40:09;;;;;;;6.40;3.88;;;;;;;9.21;97.04;98984.56;4997007;28;20057;-74
2021/09/24 01:42:35;;;;;;;8.20;4.60;;;;;;;9.35;96.71;99015.25;4992468;28;20033;-73
2021/09/24 01:45:00;;;;;;;6.80;4.05;;;;;;;9.34;96.50;98997.41;4981948;28;20106;-73
2021/09/24 01:47:25;;;;;;;6.18;4.10;;;;;;;9.40;96.65;99020.94;4994330;28;20061;-73
2021/09/24 01:49:51;;;;;;;10.60;4.35;;;;;;;9.27;97.42;98991.06;4993469;28;20033;-73
2021/09/24 01:52:16;;;;;;;7.75;4.63;;;;;;;9.18;98.89;98979.56;4998107;28;20118;-74
2021/09/24 01:54:41;;;;;;;8.00;4.90;;;;;;;9.19;99.72;98982.06;4994457;28;20114;-73
2021/09/24 01:57:07;;;;;;;6.82;4.43;;;;;;;9.44;99.96;98985.25;4985459;28;20042;-73
2021/09/24 01:59:32;;;;;;;6.80;4.95;;;;;;;9.40;100.00;99000.16;4989950;28;20042;-73
2021/09/24 02:01:57;;;;;;;8.38;4.57;;;;;;;9.39;100.00;98993.09;4995087;28;20034;-73
2021/09/24 02:04:23;;;;;;;6.68;4.60;;;;;;;9.39;100.00;98993.09;4990070;28;20077;-73
2021/09/24 02:06:48;;;;;;;11.50;5.35;;;;;;;9.15;100.00;98977.25;4984525;28;20025;-73
2021/09/24 02:09:13;;;;;;;7.05;4.70;;;;;;;9.28;100.00;99006.25;4973948;28;20110;-73
2021/09/24 02:11:39;;;;;;;9.35;4.40;;;;;;;9.13;99.76;98982.00;4976674;28;20138;-73
2021/09/24 02:14:04;;;;;;;8.82;4.57;;;;;;;9.22;100.00;98986.25;4994530;28;20397;-73
2021/09/24 02:16:30;;;;;;;8.10;4.70;;;;;;;9.27;100.00;98982.97;5026717;22;20061;-72
2021/09/24 02:18:55;;;;;;;9.50;5.32;;;;;;;9.07;100.00;98966.56;5014775;28;20108;-73
2021/09/24 02:21:21;;;;;;;6.57;4.30;;;;;;;9.19;100.00;98984.75;5014453;28;20022;-73
2021/09/24 02:23:47;;;;;;;6.85;4.70;;;;;;;9.26;99.98;99002.91;5013576;28;20030;-73
2021/09/24 02:26:13;;;;;;;8.05;4.28;;;;;;;9.13;100.00;98999.03;5012566;28;20032;-73
2021/09/24 02:28:38;;;;;;;7.70;4.75;;;;;;;9.02;100.00;98980.63;5014436;28;20108;-73
2021/09/24 02:31:09;;;;;;;7.50;4.57;;;;;;;9.06;100.00;98997.25;5013984;28;20037;-72
2021/09/24 02:33:36;;;;;;;8.90;5.07;;;;;;;9.07;99.31;98998.97;5013170;28;20029;-72
2021/09/24 02:36:03;;;;;;;7.57;4.22;;;;;;;8.97;98.74;99004.63;5010803;28;20022;-73
2021/09/24 02:38:28;;;;;;;6.90;4.65;;;;;;;8.87;99.10;98983.34;5014016;28;20040;-73
2021/09/24 02:40:53;;;;;;;7.75;3.83;;;;;;;8.91;98.55;98975.72;5003242;28;20026;-73
2021/09/24 02:43:19;;;;;;;7.63;4.65;;;;;;;9.23;99.20;99004.13;5009700;28;20113;-72
2021/09/24 02:45:44;;;;;;;6.85;4.90;;;;;;;8.92;99.61;98964.72;5008719;28;20427;-72
2021/09/24 02:48:09;;;;;;;9.02;5.22;;;;;;;8.90;100.00;98950.56;5012558;28;20029;-72
2021/09/24 02:50:35;;;;;;;9.30;5.25;;;;;;;9.09;100.00;98972.59;5005720;28;20487;-73
2021/09/24 02:53:00;;;;;;;8.23;4.50;;;;;;;9.13;100.00;98980.13;5006216;28;20083;-72
2021/09/24 02:55:25;;;;;;;7.78;4.72;;;;;;;9.12;100.00;98991.13;5009338;28;20022;-72
2021/09/24 02:57:51;;;;;;;8.63;4.85;;;;;;;9.03;100.00;98992.25;5012270;28;20029;-73
2021/09/24 03:00:16;;;;;;;8.27;4.78;;;;;;;9.09;100.00;98965.34;5013420;28;20033;-72
2021/09/24 03:02:42;;;;;;;7.82;4.90;;;;;;;9.16;100.00;98987.00;5013585;28;20395;-72
2021/09/24 03:05:08;;;;;;;11.57;5.13;;;;;;;9.36;100.00;98985.38;5012900;28;20092;-72
2021/09/24 03:07:33;;;;;;;8.18;4.55;;;;;;;9.35;100.00;98993.66;5012028;28;20057;-72
2021/09/24 03:09:59;;;;;;;12.02;4.78;;;;;;;9.06;100.00;98965.72;5010967;28;20069;-72
2021/09/24 03:12:24;;;;;;;12.88;4.88;;;;;;;9.20;100.00;98993.72;5013592;28;20112;-72
2021/09/24 03:14:49;;;;;;;7.03;4.72;;;;;;;9.13;100.00;98988.22;5013113;28;20048;-73
2021/09/24 03:17:15;;;;;;;8.65;5.15;;;;;;;8.98;100.00;98963.94;5012119;28;20026;-73
2021/09/24 03:19:42;;;;;;;8.75;5.03;;;;;;;8.91;100.00;98951.44;5011954;28;20065;-72
2021/09/24 03:22:07;;;;;;;7.60;4.75;;;;;;;9.13;100.00;98973.91;5012416;28;20028;-73
2021/09/24 03:24:32;;;;;;;10.82;5.10;;;;;;;9.13;100.00;98988.22;5001915;28;20113;-73
2021/09/24 03:26:58;;;;;;;8.75;5.38;;;;;;;9.05;100.00;98968.63;5012024;28;20034;-73
2021/09/24 03:29:23;;;;;;;6.43;4.25;;;;;;;8.95;100.00;98966.19;5012338;28;20040;-72
2021/09/24 03:31:48;;;;;;;9.57;4.50;;;;;;;9.05;100.00;98985.63;5023233;28;20037;-73
2021/09/24 03:34:14;;;;;;;7.68;4.78;;;;;;;8.94;100.00;98973.47;5013032;28;20026;-72
2021/09/24 03:36:39;;;;;;;7.28;4.63;;;;;;;8.87;100.00;98975.25;5006734;28;20018;-72
2021/09/24 03:39:10;;;;;;;7.35;4.72;;;;;;;8.95;100.00;98991.31;4995094;28;20117;-72
2021/09/24 03:41:35;;;;;;;10.55;4.38;;;;;;;8.91;100.00;98984.66;5012930;28;20080;-73
2021/09/24 03:44:01;;;;;;;8.32;5.13;;;;;;;8.77;100.00;98972.00;5012850;28;20034;-74
2021/09/24 03:46:26;;;;;;;11.07;4.85;;;;;;;8.92;100.00;98964.72;5010938;28;20057;-73
2021/09/24 03:48:51;;;;;;;8.23;4.85;;;;;;;8.94;100.00;98968.06;5012557;28;20029;-72
2021/09/24 03:51:17;;;;;;;7.28;4.88;;;;;;;8.92;100.00;98970.13;5012742;28;20641;-73
2021/09/24 03:53:42;;;;;;;11.95;4.75;;;;;;;8.83;100.00;98979.34;5009451;28;20026;-73
2021/09/24 03:56:07;;;;;;;8.50;5.13;;;;;;;8.84;100.00;98983.72;4996553;28;20026;-73
2021/09/24 03:58:33;;;;;;;11.02;5.00;;;;;;;8.96;100.00;98986.75;5013028;28;20526;-73
2021/09/24 04:00:58;;;;;;;8.10;4.82;;;;;;;8.80;100.00;98968.91;5010382;28;20034;-73
2021/09/24 04:03:23;;;;;;;14.23;5.50;;;;;;;8.81;100.00;98967.06;5011590;28;20032;-73
2021/09/24 04:05:49;;;;;;;6.32;4.45;;;;;;;8.90;100.00;98987.53;5010376;28;20084;-73
2021/09/24 04:08:14;;;;;;;8.80;4.88;;;;;;;8.84;100.00;98982.88;5013130;28;20475;-73
2021/09/24 04:10:40;;;;;;;10.48;5.20;;;;;;;8.75;100.00;98964.09;5004280;28;20030;-73
2021/09/24 04:13:06;;;;;;;8.52;4.60;;;;;;;8.75;100.00;98979.44;5013470;28;20026;-73
2021/09/24 04:15:31;;;;;;;8.15;5.05;;;;;;;8.72;100.00;98977.97;5011539;28;20052;-73
2021/09/24 04:17:57;;;;;;;7.20;4.75;;;;;;;8.80;100.00;98977.00;5012066;28;20025;-73
2021/09/24 04:20:22;;;;;;;8.13;5.07;;;;;;;8.83;100.00;98997.38;5012295;28;20026;-73
2021/09/24 04:22:48;;;;;;;7.97;4.72;;;;;;;8.93;100.00;99001.50;5010562;28;20030;-73
2021/09/24 04:25:13;;;;;;;8.15;4.88;;;;;;;8.87;100.00;98996.00;5011067;28;20037;-74
2021/09/24 04:27:39;;;;;;;11.07;4.95;;;;;;;8.76;100.00;98986.50;5011054;28;20034;-73
2021/09/24 04:30:05;;;;;;;7.57;4.93;;;;;;;8.83;100.00;98994.69;5013886;28;20502;-73
2021/09/24 04:32:33;;;;;;;13.02;5.30;;;;;;;8.89;100.00;99013.66;5005107;28;20034;-70
2021/09/24 04:34:59;;;;;;;9.30;4.88;;;;;;;8.82;100.00;98993.03;5013003;28;20502;-69
2021/09/24 04:37:25;;;;;;;8.43;5.13;;;;;;;8.80;100.00;99008.56;5009221;28;20038;-70
2021/09/24 04:39:50;;;;;;;10.20;5.65;;;;;;;8.61;100.00;98999.16;5013457;28;20076;-69
2021/09/24 04:42:16;;;;;;;13.05;5.90;;;;;;;8.67;100.00;99001.09;5016915;28;20459;-75
2021/09/24 04:44:42;;;;;;;14.50;6.55;;;;;;;8.45;100.00;98962.44;5016896;28;20089;-74
2021/09/24 04:47:07;;;;;;;9.90;5.65;;;;;;;8.63;100.00;98997.97;5015327;28;20105;-74
2021/09/24 04:49:33;;;;;;;8.75;5.50;;;;;;;8.26;100.00;98953.84;5016326;28;22135;-74
2021/09/24 04:51:58;;;;;;;10.20;5.22;;;;;;;8.50;100.00;98992.38;5007090;28;20065;-75
2021/09/24 04:54:23;;;;;;;8.18;5.38;;;;;;;8.51;100.00;99010.22;5014571;28;20514;-75
2021/09/24 04:56:49;;;;;;;6.45;4.53;;;;;;;8.41;100.00;99001.56;5015059;28;20506;-76
2021/09/24 04:59:15;;;;;;;8.52;5.07;;;;;;;8.11;100.00;98983.47;5015633;28;20033;-75
2021/09/24 05:01:40;;;;;;;8.50;5.15;;;;;;;8.05;100.00;98984.22;5017330;28;20022;-75
2021/09/24 05:04:05;;;;;;;8.88;5.75;;;;;;;8.12;100.00;99009.41;5017535;28;20364;-67
2021/09/24 05:06:31;;;;;;;8.68;5.43;;;;;;;8.02;100.00;98997.22;5015726;28;20029;-75
2021/09/24 05:08:56;;;;;;;7.28;4.72;;;;;;;8.20;100.00;99018.41;5015609;28;20030;-75
2021/09/24 05:11:21;;;;;;;10.63;5.47;;;;;;;8.15;100.00;98989.34;5017277;28;20112;-75
2021/09/24 05:13:47;;;;;;;10.27;5.07;;;;;;;8.25;100.00;98994.44;5015282;28;20037;-74
2021/09/24 05:16:15;;;;;;;10.93;5.95;;;;;;;8.42;100.00;98990.59;5014992;28;20025;-72
2021/09/24 05:18:41;;;;;;;9.63;5.45;;;;;;;8.67;100.00;99014.59;5016009;28;20033;-71
2021/09/24 05:21:06;;;;;;;9.45;5.55;;;;;;;8.75;100.00;99018.06;5015355;28;20066;-74
2021/09/24 05:23:32;;;;;;;9.45;5.07;;;;;;;8.71;100.00;99015.91;5014992;28;20120;-71
2021/09/24 05:25:57;;;;;;;8.90;5.00;;;;;;;8.77;100.00;99021.38;5014583;28;20102;-71
2021/09/24 05:28:22;;;;;;;10.80;5.55;;;;;;;8.77;100.00;99017.84;5014943;28;20387;-73
2021/09/24 05:30:47;;;;;;;9.02;4.97;;;;;;;8.84;100.00;99024.19;5015264;28;20553;-70
2021/09/24 05:33:13;;;;;;;10.85;5.22;;;;;;;8.75;99.67;99018.06;5015148;28;20030;-71
2021/09/24 05:35:38;;;;;;;7.63;4.88;;;;;;;8.73;99.83;99011.16;5016306;28;20033;-70
2021/09/24 05:38:04;;;;;;;7.10;4.85;;;;;;;8.85;100.00;99014.22;5022690;28;20022;-71
2021/09/24 05:40:29;;;;;;;6.82;4.65;;;;;;;8.79;99.54;98996.94;5013441;28;20097;-70
2021/09/24 05:42:55;;;;;;;9.57;5.13;;;;;;;9.02;99.25;99015.72;5014338;28;20471;-70
2021/09/24 05:45:20;;;;;;;8.10;5.25;;;;;;;8.96;98.72;98993.00;5014126;28;20041;-70
2021/09/24 05:47:46;;;;;;;7.00;5.07;;;;;;;9.28;98.49;99022.47;5012030;28;20042;-70
2021/09/24 05:50:12;;;;;;;7.97;5.03;;;;;;;9.44;98.18;99022.22;5014284;28;20018;-71
2021/09/24 05:52:40;;;;;;;7.88;4.88;;;;;;;9.53;97.18;99020.25;5012242;28;20392;-70
2021/09/24 05:55:06;;;;;;;11.27;5.07;;;;;;;9.73;96.09;99010.47;5013659;28;20491;-71
2021/09/24 05:57:32;;;;;;;8.98;4.65;;;;;;;10.37;92.96;99019.56;5013939;28;20119;-71
2021/09/24 05:59:57;;;;;;;6.68;4.15;;;;;;;11.70;87.07;99031.06;5014644;28;20045;-77
2021/09/24 06:02:22;;;;;;;9.05;4.60;;;;;;;12.79;79.52;99022.56;5013451;28;20022;-74
2021/09/24 06:04:47;;;;;;;7.13;3.97;;;;;;;13.77;73.36;99016.94;5014955;28;20219;-69
2021/09/24 06:07:13;;;;;;;7.13;3.85;;;;;;;13.48;74.83;99033.84;5013675;28;20030;-75
2021/09/24 06:09:38;;;;;;;8.40;3.97;;;;;;;12.91;76.54;99031.69;5012865;28;20418;-76
2021/09/24 06:12:04;;;;;;;8.60;3.72;;;;;;;12.39;79.61;99027.19;5012890;28;20022;-76
2021/09/24 06:14:29;;;;;;;9.13;3.83;;;;;;;12.24;81.84;99022.00;5009447;28;20060;-76
2021/09/24 06:16:54;;;;;;;10.82;4.40;;;;;;;11.92;83.16;99037.16;5013627;28;20414;-73
2021/09/24 06:19:20;;;;;;;6.93;4.10;;;;;;;11.84;84.06;99049.00;5015314;28;20054;-73
2021/09/24 06:21:45;;;;;;;7.13;4.07;;;;;;;11.94;82.92;99019.66;5015432;28;20480;-73
2021/09/24 06:24:11;;;;;;;6.97;4.50;;;;;;;11.84;80.24;99036.31;5015767;28;20022;-73
2021/09/24 06:26:37;;;;;;;7.70;4.60;;;;;;;11.62;80.48;99056.47;5014572;28;20030;-74
2021/09/24 06:29:02;;;;;;;7.45;4.63;;;;;;;11.22;82.12;99028.41;5018342;28;20376;-73
2021/09/24 06:31:28;;;;;;;7.20;4.75;;;;;;;11.22;82.96;99056.34;5011024;28;20523;-74
2021/09/24 06:33:53;;;;;;;6.68;4.43;;;;;;;11.32;83.25;99048.66;5015459;28;20033;-73
2021/09/24 06:36:19;;;;;;;8.68;4.55;;;;;;;11.45;83.46;99053.31;5014251;28;20048;-73
2021/09/24 06:38:46;;;;;;;11.65;4.50;;;;;;;11.63;82.19;99056.28;5006356;28;20041;-74
2021/09/24 06:41:12;;;;;;;8.52;4.65;;;;;;;11.85;82.10;99048.00;5010234;28;20025;-73
2021/09/24 06:43:37;;;;;;;6.10;4.00;;;;;;;11.98;82.10;99039.06;5015543;28;20022;-73
2021/09/24 06:46:02;;;;;;;7.10;3.83;;;;;;;12.25;81.31;99056.19;5015163;28;20026;-75
2021/09/24 06:48:28;;;;;;;8.30;4.18;;;;;;;12.43;80.53;99056.41;5012605;28;20033;-75
2021/09/24 06:50:53;;;;;;;6.88;4.55;;;;;;;12.45;80.70;99034.50;5004916;28;20029;-74
2021/09/24 06:53:18;;;;;;;6.82;3.97;;;;;;;12.69;80.27;99052.84;5016189;28;20061;-75
2021/09/24 06:55:44;;;;;;;7.10;4.18;;;;;;;12.67;79.99;99045.94;5014392;28;20076;-73
2021/09/24 06:58:09;;;;;;;8.60;4.15;;;;;;;12.58;80.70;99036.38;5007088;28;20084;-73
2021/09/24 07:00:34;;;;;;;5.28;4.25;;;;;;;12.55;82.22;99043.06;5014526;28;20120;-73
2021/09/24 07:03:00;;;;;;;8.98;5.00;;;;;;;12.74;81.73;99049.50;5015283;28;20480;-71
2021/09/24 07:05:25;;;;;;;7.68;4.70;;;;;;;12.76;81.64;99041.97;5019766;28;20022;-71
2021/09/24 07:07:50;;;;;;;6.88;4.53;;;;;;;12.86;80.56;99038.81;5014120;28;20025;-71
2021/09/24 07:10:17;;;;;;;6.40;4.53;;;;;;;13.18;80.15;99049.78;5013063;28;20044;-71
2021/09/24 07:12:43;;;;;;;7.22;4.15;;;;;;;13.95;77.80;99048.00;5012640;28;20032;-71
2021/09/24 07:15:09;;;;;;;6.13;4.68;;;;;;;14.51;74.56;99058.03;5013551;28;20026;-69
2021/09/24 07:17:35;;;;;;;8.50;4.00;;;;;;;15.19;73.15;99064.53;5013148;28;20045;-69
2021/09/24 07:20:01;;;;;;;5.70;4.10;;;;;;;15.87;70.72;99060.75;5008175;28;20022;-70
2021/09/24 07:22:26;;;;;;;7.03;4.82;;;;;;;16.05;69.63;99057.97;5011281;28;20061;-69
2021/09/24 07:24:54;;;;;;;6.18;4.15;;;;;;;16.31;70.14;99067.66;5011076;28;20029;-69
2021/09/24 07:27:20;;;;;;;5.97;4.28;;;;;;;15.92;71.37;99052.72;5012713;28;20026;-71
2021/09/24 07:29:45;;;;;;;9.85;4.35;;;;;;;16.03;71.50;99064.72;5011271;28;20057;-71
2021/09/24 07:32:10;;;;;;;9.98;4.70;;;;;;;16.22;70.78;99069.06;5010530;28;20060;-71
2021/09/24 07:34:38;;;;;;;8.75;4.70;;;;;;;16.26;70.11;99055.78;5011407;28;20055;-73
2021/09/24 07:37:04;;;;;;;7.97;4.75;;;;;;;15.99;70.06;99054.28;5012413;28;20079;-71
2021/09/24 07:39:29;;;;;;;6.20;4.32;;;;;;;16.12;69.22;99064.19;5012448;28;20025;-71
2021/09/24 07:41:54;;;;;;;7.75;4.40;;;;;;;16.37;68.25;99050.34;5012699;28;20034;-70
2021/09/24 07:44:20;;;;;;;10.57;4.72;;;;;;;16.82;68.00;99063.50;5010878;28;20053;-70
2021/09/24 07:46:47;;;;;;;10.95;5.68;;;;;;;17.09;65.27;99041.94;5008894;28;20120;-68
2021/09/24 07:49:13;;;;;;;13.35;5.93;;;;;;;17.58;63.34;99062.63;5003872;28;20029;-71
2021/09/24 07:51:38;;;;;;;14.60;6.40;;;;;;;17.34;64.43;99050.94;5008963;28;20383;-71
2021/09/24 07:54:03;;;;;;;14.57;6.15;;;;;;;18.22;61.71;99055.13;5010137;28;20132;-71
2021/09/24 07:56:29;;;;;;;12.77;6.40;;;;;;;18.58;60.17;99051.09;5007622;28;20053;-70
2021/09/24 07:58:55;;;;;;;14.07;6.95;;;;;;;20.26;55.59;99045.31;5011786;28;20030;-70
2021/09/24 08:01:21;;;;;;;13.25;6.07;;;;;;;22.46;49.23;99047.25;5010639;28;20538;-70
2021/09/24 08:03:46;;;;;;;8.85;5.10;;;;;;;22.17;49.02;99046.09;5011158;28;20169;-70
2021/09/24 08:06:12;;;;;;;12.27;5.00;;;;;;;23.44;46.24;99031.34;5013545;28;20057;-71
2021/09/24 08:08:37;;;;;;;6.90;4.63;;;;;;;26.28;40.45;99045.88;5009773;28;20046;-70
2021/09/24 08:11:02;;;;;;;8.40;5.07;;;;;;;26.99;38.17;99044.72;5014467;28;20022;-71
2021/09/24 08:13:28;;;;;;;8.30;4.80;;;;;;;27.65;37.07;99041.78;5014039;28;20667;-70
2021/09/24 08:18:22;;;;;;;7.85;3.83;;;;;;;29.52;33.08;99038.59;4977482;28;20508;-70
2021/09/24 08:20:48;;;;;;;9.85;3.67;;;;;;;30.61;31.67;99032.19;4977476;28;20035;-70
2021/09/24 08:23:14;;;;;;;7.18;3.78;;;;;;;30.11;31.89;99048.25;4969029;28;20159;-70
2021/09/24 08:25:40;;;;;;;7.72;4.22;;;;;;;30.02;32.22;99035.44;4979780;28;20089;-70
2021/09/24 08:28:06;;;;;;;7.68;4.57;;;;;;;29.76;32.70;99052.13;4975040;28;20038;-72
2021/09/24 08:30:32;;;;;;;8.27;4.22;;;;;;;29.22;33.43;99047.50;4976389;28;20038;-70
2021/09/24 08:33:00;;;;;;;9.43;4.18;;;;;;;28.95;34.89;99054.06;4976416;28;20046;-70
2021/09/24 08:35:25;;;;;;;8.70;4.30;;;;;;;29.66;33.08;99058.84;4976263;28;20564;-71
2021/09/24 08:37:51;;;;;;;8.50;4.32;;;;;;;30.28;32.24;99055.00;4975461;28;20113;-70
2021/09/24 08:40:18;;;;;;;9.35;4.47;;;;;;;28.50;34.36;99058.81;4975838;28;20022;-71
2021/09/24 08:42:45;;;;;;;6.80;4.20;;;;;;;28.93;33.79;99052.72;4975214;28;20042;-71
2021/09/24 08:45:16;;;;;;;6.85;4.03;;;;;;;29.61;33.29;99059.78;4972486;28;20058;-70
2021/09/24 08:47:42;;;;;;;5.22;3.78;;;;;;;30.37;31.64;99058.66;4973824;28;20125;-71
2021/09/24 08:50:09;;;;;;;5.75;3.92;;;;;;;30.67;31.60;99047.59;4975490;28;20035;-70
2021/09/24 08:52:36;;;;;;;6.65;3.60;;;;;;;31.53;29.96;99052.16;4975596;28;20027;-71
2021/09/24 08:55:04;;;;;;;6.40;3.60;;;;;;;30.84;30.60;99049.56;4974098;28;20027;-71
2021/09/24 08:57:29;;;;;;;6.43;3.40;;;;;;;32.71;28.52;99039.94;4976151;28;20026;-71
2021/09/24 08:59:54;;;;;;;6.47;3.90;;;;;;;33.52;27.87;99042.34;4974224;28;20062;-71
2021/09/24 09:02:20;;;;;;;6.15;3.92;;;;;;;32.61;28.28;99031.97;4975572;28;20074;-71
2021/09/24 09:04:46;;;;;;;6.43;3.15;;;;;;;32.45;28.60;99036.56;4975902;28;20066;-71
2021/09/24 09:07:21;;;;;;;7.03;3.42;;;;;;;29.27;34.17;99036.22;4974958;28;20054;-72
2021/09/24 09:09:51;;;;;;;6.70;3.30;;;;;;;30.28;32.50;99038.28;4975829;28;20058;-72
2021/09/24 09:12:18;;;;;;;9.05;3.63;;;;;;;30.11;32.33;99047.44;4957997;28;20051;-71
2021/09/24 09:14:58;;;;;;;3.80;3.35;;;;;;;30.56;31.41;99039.56;4976538;28;20066;-72
2021/09/24 09:17:32;;;;;;;4.80;3.17;;;;;;;31.77;30.57;99034.72;4977636;28;20057;-72
2021/09/24 09:20:15;;;;;;;5.28;3.17;;;;;;;31.60;31.04;99034.84;4973340;28;20621;-72
2021/09/24 09:22:43;;;;;;;8.35;2.90;;;;;;;33.54;28.50;99040.06;4976692;28;20069;-71
2021/09/24 09:25:22;;;;;;;3.63;2.67;;;;;;;34.91;26.36;99020.47;4976778;28;20499;-71
2021/09/24 09:27:48;;;;;;;6.40;3.42;;;;;;;30.09;31.77;99038.56;4979215;28;20077;-72
2021/09/24 09:30:15;;;;;;;7.10;3.25;;;;;;;29.46;33.79;99041.53;4975859;28;20023;-71
2021/09/24 09:32:57;;;;;;;8.27;3.00;;;;;;;28.19;36.50;99038.09;4974646;28;20029;-71
2021/09/24 09:35:23;;;;;;;6.72;3.47;;;;;;;29.08;35.57;99035.63;4965093;28;20022;-71
2021/09/24 09:37:49;;;;;;;6.97;3.60;;;;;;;28.18;36.16;99053.13;4973384;28;20027;-71
2021/09/24 09:40:17;;;;;;;9.80;3.25;;;;;;;29.48;34.67;99033.66;4975254;28;20142;-71
2021/09/24 09:42:44;;;;;;;5.10;2.38;;;;;;;30.25;33.50;99030.56;4974689;28;20026;-71
2021/09/24 09:45:13;;;;;;;4.88;2.70;;;;;;;30.87;32.02;99032.97;4974028;28;20520;-71
2021/09/24 09:47:40;;;;;;;3.75;2.28;;;;;;;32.74;29.81;99025.25;4972540;28;20057;-72
2021/09/24 09:50:14;;;;;;;5.25;2.63;;;;;;;32.72;29.47;99026.75;4975615;28;20033;-71
2021/09/24 09:53:03;;;;;;;5.13;2.40;;;;;;;33.98;27.29;99026.19;4974901;28;20035;-71
2021/09/24 09:55:33;;;;;;;3.33;2.10;;;;;;;34.34;27.81;99016.06;4974560;28;20484;-71
2021/09/24 09:58:03;;;;;;;6.72;2.55;;;;;;;34.17;28.49;99023.59;4960719;28;20086;-69
2021/09/24 10:00:30;;;;;;;9.32;2.45;;;;;;;33.11;30.51;99021.75;4973018;28;20043;-77
2021/09/24 10:03:10;;;;;;;6.45;2.17;;;;;;;32.88;29.06;99016.56;4975164;28;20073;-76
2021/09/24 10:05:43;;;;;;;3.70;2.15;;;;;;;31.82;30.71;99022.53;4974815;28;20500;-75
2021/09/24 10:08:26;;;;;;;3.22;2.40;;;;;;;33.25;28.20;99015.78;4957835;28;20099;-75
2021/09/24 10:10:52;;;;;;;4.00;1.75;;;;;;;32.03;29.66;99014.19;4974977;28;20097;-75
2021/09/24 10:13:17;;;;;;;6.40;2.47;;;;;;;31.76;30.59;99009.91;4974474;28;20030;-77
2021/09/24 10:15:43;;;;;;;3.38;2.25;;;;;;;32.04;30.56;99005.47;4974765;28;20022;-75
2021/09/24 10:18:08;;;;;;;3.58;2.17;;;;;;;30.67;32.86;99005.72;4973479;28;20027;-75
2021/09/24 10:20:33;;;;;;;9.07;2.30;;;;;;;31.46;31.21;99001.50;4975475;28;20031;-77
2021/09/24 10:22:59;;;;;;;3.42;2.03;;;;;;;30.58;32.36;98997.34;4975148;28;20042;-77
2021/09/24 10:25:24;;;;;;;5.22;2.13;;;;;;;31.87;31.84;98995.16;4975071;28;20026;-76
2021/09/24 10:27:50;;;;;;;5.88;2.10;;;;;;;31.30;30.82;99000.44;4975597;28;20026;-77
2021/09/24 10:30:25;;;;;;;3.78;1.92;;;;;;;30.39;32.37;98994.09;4976796;28;20062;-76
2021/09/24 10:32:54;;;;;;;2.85;1.90;;;;;;;28.23;35.93;99010.47;4975385;28;20555;-76
2021/09/24 10:35:19;;;;;;;2.55;1.70;;;;;;;28.89;35.04;98996.81;4965917;28;20039;-76
2021/09/24 10:37:47;;;;;;;3.55;1.70;;;;;;;29.56;35.27;98983.84;4974290;28;20093;-76
2021/09/24 10:40:21;;;;;;;2.60;1.50;;;;;;;30.61;33.43;99002.28;4974563;28;20073;-76
2021/09/24 10:42:51;;;;;;;3.10;2.08;;;;;;;32.07;29.96;99001.97;4974525;28;20034;-76
2021/09/24 10:45:35;;;;;;;5.30;2.35;;;;;;;32.84;29.13;98997.97;4973800;28;20029;-76
2021/09/24 10:48:18;;;;;;;4.90;1.90;;;;;;;31.16;32.11;98993.09;4975157;28;20105;-76
2021/09/24 10:50:45;;;;;;;1.90;1.63;;;;;;;32.29;30.06;98988.78;4976545;28;20122;-76
2021/09/24 10:53:16;;;;;;;3.17;1.83;;;;;;;32.51;30.12;98982.84;4974504;28;20031;-77
2021/09/24 10:55:43;;;;;;;3.78;1.80;;;;;;;29.57;34.23;98979.88;4965507;28;20023;-77
2021/09/24 10:58:36;;;;;;;5.15;1.60;;;;;;;27.54;36.59;98980.84;4974415;28;20472;-77
2021/09/24 11:01:14;;;;;;;3.05;1.55;;;;;;;27.66;37.41;98979.50;4966176;28;20035;-76
2021/09/24 11:03:52;;;;;;;4.45;2.10;;;;;;;30.17;33.01;98965.19;4972778;28;20042;-76
2021/09/24 11:06:33;;;;;;;3.10;1.98;;;;;;;31.04;32.19;98965.03;4972738;28;20488;-77
2021/09/24 11:09:00;;;;;;;3.50;2.05;;;;;;;30.91;31.29;98964.09;4972537;28;20031;-77
2021/09/24 11:11:30;;;;;;;2.80;2.17;;;;;;;28.80;34.52;98980.09;4972621;28;20551;-77
2021/09/24 11:14:00;;;;;;;4.72;2.17;;;;;;;27.90;36.70;98976.47;4967979;28;20030;-75
2021/09/24 11:16:51;;;;;;;2.80;2.05;;;;;;;27.40;38.28;98970.88;4970168;28;20030;-70
2021/09/24 11:19:31;;;;;;;2.47;2.03;;;;;;;30.04;33.70;98958.63;4968851;28;20030;-70
2021/09/24 11:21:59;;;;;;;5.18;2.83;;;;;;;29.19;33.65;98958.16;4969336;28;20039;-70
2021/09/24 11:24:26;;;;;;;4.80;2.40;;;;;;;30.13;33.23;98956.66;4951910;28;20035;-70
2021/09/24 11:26:57;;;;;;;6.47;2.50;;;;;;;32.28;30.74;98956.34;4969429;28;20109;-70
2021/09/24 11:29:23;;;;;;;4.95;2.47;;;;;;;30.26;32.95;98957.66;4970719;28;20030;-69
2021/09/24 11:32:00;;;;;;;4.57;2.20;;;;;;;27.71;36.21;98968.25;4970343;28;20034;-70
2021/09/24 11:34:43;;;;;;;3.80;2.10;;;;;;;27.15;38.37;98958.34;4970325;28;20023;-70